Ana Sayfa
METAR-TAF:

METAR-TAF

Havaalanları :

Monclova, Meksika

Enlem: 26-53N, Boylam: 101-25W, yükseklik: 615 m

Güncel hava durumu gözlemi

Rapor saat 23:43 UTC de 9 saat ve 6 dakika önce yapıldı.
Sakin rüzgar
Sıcaklık 33°C
Nem 39%
Basınç 1004 hPa
Görüş mesafesi: 12.9 km
6000 ft yükseklikte parçalı bulutlu

METAR: MMMV 242343Z 00000KT 8SM SCT060 33/17 A2964 RMK 8/500 HZY

Saat: 03:49 (08:49 UTC)

Tahmin

Rapor saat 17:06 UTC de 15 saat ve 43 dakika önce yapıldı.
Ayın 24'si saat 18 UTC'den ayın 25'si saat 18 UTC'ye kadar geçerli Tahmin
Rüzgar kuzeydan kt
Görüş mesafesi: 10 km
2500 ft yükseklikte parçalı bulutlu
Ayın 25'si saat 0300 UTC'den
Rüzgar güney/güneybatıdan 6 kt
Görüş mesafesi: 10 km
Açık gökyüzü
Ayın 25'si saat 1600 UTC'den
Rüzgar kuzeydoğudan 6 kt
Görüş mesafesi: 10 km
Açık gökyüzü

TAF: MMMV 241706Z 2418/2518 00000KT P6SM SCT025 FM250300 20006KT P6SM SKC FM251600 05006KT P6SM SKC

4.000'den fazla havaalanı için hava durumu gözlemleri ve tahminleri (METAR ve TAF raporları).

Kullanılabilir istasyonlar harita üzerinde sarı ve kırmızı noktalarla gösterilir.

İstasyonun adını görmek için fareyi noktanın üzerinde gezdirin.

Sonrasında hava gözlem ve tahminlerini görmek için tıklayın.

Haritayı değiştirmek için: yaklaştırmak için siyah artı işaretli yeşil düğmeye ve uzaklaştırmak için de eksi işaretli düğmeye hızla tıklayın; bitişik haritalar için yeşil okları kullanın.


METAR-TAF: